Time;durP1;ratioP1;P1;durP2;ratioP2;P2;SDS_P1;SDS_P2;PMS_P1;PMS_P2;Temp;Humidity;BMP_temperature;BMP_pressure;BME280_temperature;BME280_humidity;BME280_pressure;Samples;Min_cycle;Max_cycle;Signal;HPM_P1;HPM_P2
2023/06/14 00:00:43;;;;;;;7.03;4.72;;;10.80;1.00;;;;;;5073837;28;20028;-53
2023/06/14 00:03:09;;;;;;;8.50;6.10;;;10.80;99.90;;;;;;5073772;28;20047;-52
2023/06/14 00:05:40;;;;;;;6.28;5.00;;;10.70;1.00;;;;;;5073792;28;20027;-52
2023/06/14 00:08:10;;;;;;;5.15;4.20;;;10.60;1.00;;;;;;5073549;28;20025;-52
2023/06/14 00:10:41;;;;;;;12.57;5.47;;;10.50;1.00;;;;;;5072319;28;20111;-52
2023/06/14 00:13:10;;;;;;;5.85;4.18;;;10.40;87.70;;;;;;5073530;28;20027;-51
2023/06/14 00:15:36;;;;;;;5.95;5.03;;;10.30;94.70;;;;;;5073494;28;20020;-53
2023/06/14 00:18:02;;;;;;;7.45;5.32;;;10.20;99.90;;;;;;5073412;28;20020;-53
2023/06/14 00:20:30;;;;;;;11.23;4.90;;;10.20;99.90;;;;;;5073521;28;20159;-52
2023/06/14 00:22:56;;;;;;;12.30;5.25;;;10.10;99.90;;;;;;5073327;28;20073;-52
2023/06/14 00:25:23;;;;;;;5.78;4.05;;;10.10;99.90;;;;;;5073155;28;20103;-52
2023/06/14 00:27:49;;;;;;;7.82;4.70;;;10.10;99.90;;;;;;5073395;28;20151;-51
2023/06/14 00:30:15;;;;;;;9.48;5.03;;;10.10;99.90;;;;;;5073017;28;20103;-52
2023/06/14 00:32:42;;;;;;;6.57;4.95;;;9.90;99.90;;;;;;5073260;28;20028;-53
2023/06/14 00:35:08;;;;;;;5.53;4.82;;;10.00;99.90;;;;;;5072911;28;20017;-52
2023/06/14 00:37:34;;;;;;;6.60;4.75;;;10.00;99.90;;;;;;5073020;28;20024;-52
2023/06/14 00:40:00;;;;;;;7.13;4.88;;;9.90;99.90;;;;;;5072824;28;20031;-52
2023/06/14 00:42:27;;;;;;;8.15;5.82;;;9.90;99.90;;;;;;5072946;28;20422;-55
2023/06/14 00:44:53;;;;;;;6.85;4.63;;;9.80;99.90;;;;;;5072960;28;20489;-55
2023/06/14 00:47:20;;;;;;;6.75;4.45;;;9.80;99.90;;;;;;5072728;28;20472;-53
2023/06/14 00:49:47;;;;;;;8.48;4.47;;;9.70;99.90;;;;;;5072939;28;20052;-52
2023/06/14 00:52:14;;;;;;;6.18;4.72;;;9.70;99.90;;;;;;5072506;28;20153;-54
2023/06/14 00:54:41;;;;;;;6.80;4.22;;;9.60;99.90;;;;;;5072684;28;20367;-55
2023/06/14 00:57:07;;;;;;;7.30;4.78;;;9.50;99.90;;;;;;5071627;28;20047;-52
2023/06/14 00:59:37;;;;;;;4.72;4.25;;;9.40;1.00;;;;;;5071732;28;20028;-52
2023/06/14 01:02:03;;;;;;;9.70;4.40;;;9.40;99.90;;;;;;5071966;28;20359;-56
2023/06/14 01:04:29;;;;;;;7.45;4.47;;;9.30;1.00;;;;;;5071944;28;20050;-56
2023/06/14 01:07:22;;;;;;;6.38;4.57;;;9.20;1.00;;;;;;5071696;28;20471;-55
2023/06/14 01:10:15;;;;;;;7.75;4.57;;;9.20;1.00;;;;;;5071202;28;20064;-54
2023/06/14 01:12:52;;;;;;;6.90;4.60;;;9.20;1.00;;;;;;5072320;28;20028;-53
2023/06/14 01:15:20;;;;;;;6.65;4.22;;;9.10;1.00;;;;;;5072177;28;20064;-53
2023/06/14 01:17:51;;;;;;;5.78;3.90;;;9.10;1.00;;;;;;5072292;28;20030;-55
2023/06/14 01:20:19;;;;;;;6.55;4.43;;;9.00;1.00;;;;;;5072034;28;20074;-52
2023/06/14 01:22:52;;;;;;;8.85;4.80;;;8.90;1.00;;;;;;5072258;28;20032;-55
2023/06/14 01:25:22;;;;;;;8.90;4.40;;;8.90;1.00;;;;;;5072279;28;20052;-54
2023/06/14 01:28:10;;;;;;;9.05;5.78;;;8.90;1.00;;;;;;5072279;28;20021;-52
2023/06/14 01:30:47;;;;;;;5.32;4.25;;;8.90;1.00;;;;;;5080965;28;20021;-54
2023/06/14 01:33:18;;;;;;;5.38;3.72;;;9.00;1.00;;;;;;5073798;28;20021;-55
2023/06/14 01:35:50;;;;;;;6.63;4.75;;;9.00;1.00;;;;;;5072047;28;20032;-55
2023/06/14 01:38:19;;;;;;;6.95;4.32;;;8.90;1.00;;;;;;5071798;28;20028;-52
2023/06/14 01:40:45;;;;;;;5.57;4.45;;;8.90;1.00;;;;;;5072029;28;20020;-53
2023/06/14 01:43:14;;;;;;;12.07;5.15;;;9.00;1.00;;;;;;5071749;28;20049;-52
2023/06/14 01:45:42;;;;;;;6.72;4.55;;;9.00;1.00;;;;;;5071890;28;20109;-55
2023/06/14 01:48:09;;;;;;;5.65;4.18;;;9.00;1.00;;;;;;5071613;28;20031;-55
2023/06/14 01:50:35;;;;;;;5.53;4.45;;;9.00;1.00;;;;;;5071807;28;20029;-53
2023/06/14 01:53:01;;;;;;;11.93;4.47;;;9.00;1.00;;;;;;5071451;28;20353;-52
2023/06/14 01:55:26;;;;;;;6.47;4.20;;;8.90;99.90;;;;;;5071669;28;20091;-52
2023/06/14 01:57:53;;;;;;;6.45;5.00;;;9.00;1.00;;;;;;5071495;28;20065;-51
2023/06/14 02:00:19;;;;;;;8.77;4.72;;;8.90;1.00;;;;;;5071426;28;20046;-55
2023/06/14 02:02:45;;;;;;;7.45;5.20;;;8.80;1.00;;;;;;5071628;28;20024;-55
2023/06/14 02:05:11;;;;;;;9.63;5.10;;;8.90;1.00;;;;;;5071240;28;20027;-52
2023/06/14 02:07:37;;;;;;;5.40;4.40;;;8.80;1.00;;;;;;5071527;28;20082;-51
2023/06/14 02:10:04;;;;;;;7.38;4.70;;;8.80;1.00;;;;;;5071473;28;20028;-54
2023/06/14 02:12:30;;;;;;;5.55;4.70;;;8.80;1.00;;;;;;5071622;28;20115;-51
2023/06/14 02:14:56;;;;;;;6.65;4.65;;;8.80;1.00;;;;;;5071566;28;20111;-50
2023/06/14 02:17:22;;;;;;;7.80;4.38;;;8.80;1.00;;;;;;5071186;28;20639;-54
2023/06/14 02:19:48;;;;;;;4.57;3.92;;;8.80;1.00;;;;;;5071418;28;20438;-53
2023/06/14 02:22:15;;;;;;;9.23;4.35;;;8.70;1.00;;;;;;5071445;28;20117;-51
2023/06/14 02:24:41;;;;;;;15.20;5.25;;;8.80;1.00;;;;;;5071604;28;20032;-52
2023/06/14 02:27:10;;;;;;;5.95;4.35;;;8.80;1.00;;;;;;5071428;28;20777;-52
2023/06/14 02:29:36;;;;;;;8.43;4.60;;;8.70;1.00;;;;;;5071331;28;20032;-55
2023/06/14 02:32:01;;;;;;;9.05;4.10;;;8.70;1.00;;;;;;5071175;28;20020;-53
2023/06/14 02:34:27;;;;;;;7.43;5.22;;;8.80;1.00;;;;;;5071342;28;20025;-51
2023/06/14 02:36:52;;;;;;;8.05;4.10;;;8.90;1.00;;;;;;5071304;28;20040;-52
2023/06/14 02:39:20;;;;;;;8.55;4.35;;;9.00;1.00;;;;;;5071123;28;20028;-51
2023/06/14 02:41:46;;;;;;;6.95;4.40;;;9.20;1.00;;;;;;5071372;28;20374;-53
2023/06/14 02:44:13;;;;;;;6.20;4.40;;;9.20;1.00;;;;;;5071131;28;20111;-55
2023/06/14 02:46:39;;;;;;;7.88;4.93;;;9.00;1.00;;;;;;5071190;28;20079;-54
2023/06/14 02:49:05;;;;;;;7.35;4.93;;;9.00;1.00;;;;;;5071282;28;20037;-52
2023/06/14 02:51:30;;;;;;;6.20;5.47;;;8.90;1.00;;;;;;5071217;28;20017;-51
2023/06/14 02:53:56;;;;;;;7.32;5.45;;;8.80;1.00;;;;;;5069611;28;20033;-55
2023/06/14 02:56:22;;;;;;;12.63;5.32;;;8.80;1.00;;;;;;5070933;28;20029;-54
2023/06/14 02:58:48;;;;;;;8.98;5.22;;;8.80;1.00;;;;;;5069250;28;20040;-52
2023/06/14 03:01:14;;;;;;;12.57;5.40;;;8.70;1.00;;;;;;5070754;28;20028;-54
2023/06/14 03:03:40;;;;;;;8.73;4.90;;;8.70;1.00;;;;;;5071001;28;20043;-53
2023/06/14 03:06:08;;;;;;;8.30;5.65;;;8.70;1.00;;;;;;5070962;28;20115;-55
2023/06/14 03:08:38;;;;;;;8.43;5.65;;;8.70;1.00;;;;;;5069000;28;20029;-54
2023/06/14 03:11:07;;;;;;;7.78;5.63;;;8.70;1.00;;;;;;5070255;28;20116;-56
2023/06/14 03:13:34;;;;;;;8.60;5.30;;;8.60;1.00;;;;;;5071054;28;20094;-51
2023/06/14 03:16:03;;;;;;;9.75;6.13;;;8.60;1.00;;;;;;5070492;28;20028;-55
2023/06/14 03:18:35;;;;;;;6.38;5.13;;;8.60;1.00;;;;;;5072679;28;20597;-54
2023/06/14 03:21:01;;;;;;;10.35;5.53;;;8.60;1.00;;;;;;5074465;28;20475;-54
2023/06/14 03:23:27;;;;;;;7.30;5.40;;;8.50;1.00;;;;;;5074480;28;20017;-55
2023/06/14 03:25:53;;;;;;;5.45;4.93;;;8.50;1.00;;;;;;5074447;28;20256;-52
2023/06/14 03:28:18;;;;;;;9.55;5.45;;;8.60;1.00;;;;;;5074228;28;20039;-52
2023/06/14 03:30:44;;;;;;;5.88;4.88;;;8.60;1.00;;;;;;5073263;28;20020;-53
2023/06/14 03:33:10;;;;;;;12.25;5.28;;;8.70;1.00;;;;;;5074175;28;20376;-54
2023/06/14 03:35:36;;;;;;;15.55;6.13;;;8.80;1.00;;;;;;5074057;28;20021;-56
2023/06/14 03:38:02;;;;;;;6.80;5.28;;;8.90;1.00;;;;;;5072497;28;20639;-53
2023/06/14 03:40:28;;;;;;;9.93;6.55;;;9.00;1.00;;;;;;5073800;28;20423;-52
2023/06/14 03:42:54;;;;;;;11.15;5.80;;;9.00;1.00;;;;;;5073207;28;20031;-52
2023/06/14 03:45:20;;;;;;;13.15;5.45;;;9.00;1.00;;;;;;5073410;28;20031;-55
2023/06/14 03:47:46;;;;;;;9.90;5.70;;;8.90;1.00;;;;;;5073775;28;20363;-54
2023/06/14 03:50:12;;;;;;;12.23;5.68;;;8.90;1.00;;;;;;5073220;28;20441;-54
2023/06/14 03:52:38;;;;;;;12.95;5.22;;;8.90;1.00;;;;;;5073679;28;20036;-51
2023/06/14 03:55:04;;;;;;;8.30;5.45;;;9.00;1.00;;;;;;5073543;28;20522;-55
2023/06/14 03:57:30;;;;;;;6.88;5.90;;;9.20;1.00;;;;;;5072293;28;20380;-56
2023/06/14 03:59:56;;;;;;;6.70;5.00;;;9.30;1.00;;;;;;5073536;28;20032;-53
2023/06/14 04:02:22;;;;;;;8.00;5.30;;;9.40;1.00;;;;;;5073528;28;20380;-53
2023/06/14 04:04:48;;;;;;;8.40;5.28;;;9.50;1.00;;;;;;5073809;28;20107;-52
2023/06/14 04:07:19;;;;;;;6.82;4.68;;;9.60;1.00;;;;;;5073629;28;20108;-52
2023/06/14 04:09:46;;;;;;;12.35;8.32;;;9.70;1.00;;;;;;5073761;28;20021;-56
2023/06/14 04:12:12;;;;;;;8.57;5.50;;;9.80;1.00;;;;;;5073189;28;20111;-53
2023/06/14 04:14:38;;;;;;;14.48;5.43;;;9.80;1.00;;;;;;5073385;28;20025;-53
2023/06/14 04:17:04;;;;;;;8.02;5.82;;;9.80;1.00;;;;;;5073337;28;20103;-55
2023/06/14 04:19:30;;;;;;;22.23;6.25;;;9.90;1.00;;;;;;5073464;28;20115;-53
2023/06/14 04:21:56;;;;;;;20.20;5.30;;;10.00;1.00;;;;;;5073492;28;20556;-52
2023/06/14 04:24:22;;;;;;;11.23;4.78;;;10.10;1.00;;;;;;5071012;28;20013;-51
2023/06/14 04:26:49;;;;;;;10.27;4.32;;;10.30;1.00;;;;;;5072166;28;20383;-52
2023/06/14 04:29:16;;;;;;;9.73;5.07;;;10.50;1.00;;;;;;5070397;28;20475;-51
2023/06/14 04:31:46;;;;;;;15.38;5.10;;;10.60;1.00;;;;;;5072494;28;20028;-54
2023/06/14 04:34:18;;;;;;;12.90;5.80;;;10.80;1.00;;;;;;5070705;28;20073;-54
2023/06/14 04:36:55;;;;;;;14.75;5.78;;;11.00;1.00;;;;;;5072546;28;20021;-52
2023/06/14 04:39:22;;;;;;;9.40;5.05;;;11.10;1.00;;;;;;5071990;28;20174;-53
2023/06/14 04:41:51;;;;;;;8.02;5.00;;;11.20;1.00;;;;;;5071961;28;20490;-52
2023/06/14 04:44:18;;;;;;;9.77;4.63;;;11.20;1.00;;;;;;5071739;28;20449;-53
2023/06/14 04:46:47;;;;;;;6.72;5.10;;;11.40;1.00;;;;;;5071907;28;20023;-54
2023/06/14 04:49:16;;;;;;;9.13;4.78;;;11.50;1.00;;;;;;5070410;28;20503;-53
2023/06/14 04:51:42;;;;;;;12.00;5.43;;;11.60;1.00;;;;;;5071631;28;20074;-52
2023/06/14 04:54:13;;;;;;;9.02;5.13;;;11.80;1.00;;;;;;5071342;28;20403;-55
2023/06/14 04:56:42;;;;;;;18.13;6.10;;;12.00;1.00;;;;;;5071789;28;20016;-53
2023/06/14 04:59:08;;;;;;;6.93;5.18;;;12.20;99.90;;;;;;5071951;28;20476;-51
2023/06/14 05:01:35;;;;;;;8.57;5.35;;;12.30;99.90;;;;;;5072338;28;20024;-52
2023/06/14 05:04:01;;;;;;;13.95;6.13;;;12.50;99.90;;;;;;5071999;28;20111;-52
2023/06/14 05:06:27;;;;;;;27.27;7.50;;;12.70;99.90;;;;;;5072296;28;20099;-55
2023/06/14 05:08:53;;;;;;;12.02;5.85;;;12.80;46.70;;;;;;5070674;28;20115;-51
2023/06/14 05:11:19;;;;;;;14.75;6.30;;;13.00;1.00;;;;;;5072023;28;20040;-54
2023/06/14 05:13:45;;;;;;;208.43;52.35;;;13.00;39.00;;;;;;5071706;28;20031;-52
2023/06/14 05:16:12;;;;;;;9.70;5.85;;;13.20;25.10;;;;;;5070661;28;20112;-51
2023/06/14 05:18:38;;;;;;;10.77;5.55;;;13.30;99.90;;;;;;5071878;28;20074;-55
2023/06/14 05:21:06;;;;;;;7.80;5.72;;;13.30;99.90;;;;;;5071381;28;20434;-55
2023/06/14 05:23:32;;;;;;;9.13;5.57;;;13.40;99.90;;;;;;5072387;28;20028;-53
2023/06/14 05:25:58;;;;;;;14.93;6.28;;;13.50;99.90;;;;;;5072239;28;20112;-52
2023/06/14 05:28:24;;;;;;;13.48;5.68;;;13.50;98.70;;;;;;5071995;28;20024;-53
2023/06/14 05:30:51;;;;;;;9.68;6.32;;;13.60;1.00;;;;;;5072105;28;20028;-53
2023/06/14 05:33:16;;;;;;;6.65;4.97;;;13.70;99.90;;;;;;5071938;28;20459;-52
2023/06/14 05:35:42;;;;;;;7.45;5.50;;;13.80;1.00;;;;;;5070888;28;20017;-55
2023/06/14 05:38:08;;;;;;;8.98;6.38;;;13.90;99.90;;;;;;5071435;28;20027;-56
2023/06/14 05:40:34;;;;;;;9.32;5.93;;;13.90;99.90;;;;;;5071067;28;20471;-52
2023/06/14 05:42:59;;;;;;;13.35;5.63;;;14.10;1.00;;;;;;5071659;28;20067;-53
2023/06/14 05:45:25;;;;;;;7.40;5.50;;;14.10;50.10;;;;;;5071721;28;20411;-52
2023/06/14 05:47:52;;;;;;;6.82;6.13;;;14.20;1.00;;;;;;5071543;28;20031;-55
2023/06/14 05:50:17;;;;;;;7.95;6.18;;;14.20;99.90;;;;;;5071274;28;20016;-54
2023/06/14 05:52:43;;;;;;;12.40;6.68;;;14.30;1.00;;;;;;5071761;28;20101;-54
2023/06/14 05:55:11;;;;;;;18.27;5.70;;;14.40;1.00;;;;;;5071353;28;20025;-53
2023/06/14 05:57:37;;;;;;;12.45;5.00;;;14.40;1.00;;;;;;5070296;28;20455;-56
2023/06/14 06:00:14;;;;;;;13.20;6.43;;;14.50;99.90;;;;;;5071090;28;20491;-55
2023/06/14 06:02:43;;;;;;;6.85;5.90;;;14.50;99.90;;;;;;5071462;28;20051;-55
2023/06/14 06:05:09;;;;;;;8.20;5.88;;;14.50;99.90;;;;;;5071339;28;20095;-54
2023/06/14 06:07:35;;;;;;;13.15;5.43;;;14.60;1.00;;;;;;5071322;28;20481;-54
2023/06/14 06:10:00;;;;;;;9.07;5.18;;;14.60;1.00;;;;;;5071371;28;20021;-53
2023/06/14 06:12:26;;;;;;;9.65;5.80;;;14.60;1.00;;;;;;5070017;28;20032;-53
2023/06/14 06:14:51;;;;;;;9.82;6.35;;;14.60;99.90;;;;;;5069591;28;20024;-55
2023/06/14 06:17:17;;;;;;;9.18;5.95;;;14.70;1.00;;;;;;5069693;28;20517;-54
2023/06/14 06:19:43;;;;;;;16.17;5.55;;;14.70;99.90;;;;;;5070346;28;20035;-52
2023/06/14 06:22:09;;;;;;;8.68;5.95;;;14.80;75.70;;;;;;5070699;28;20029;-52
2023/06/14 06:24:35;;;;;;;9.63;6.22;;;14.90;99.90;;;;;;5070059;28;20013;-55
2023/06/14 06:27:00;;;;;;;8.15;5.70;;;15.10;38.30;;;;;;5070408;28;20020;-55
2023/06/14 06:29:26;;;;;;;10.88;5.72;;;15.10;1.00;;;;;;5069802;28;20021;-56
2023/06/14 06:31:52;;;;;;;8.90;5.65;;;15.20;23.50;;;;;;5069464;28;20028;-56
2023/06/14 06:34:17;;;;;;;11.18;5.65;;;15.40;1.00;;;;;;5069309;28;20016;-56
2023/06/14 06:36:43;;;;;;;5.22;4.72;;;15.40;99.90;;;;;;5069736;28;20024;-56
2023/06/14 06:39:11;;;;;;;13.20;5.55;;;15.50;99.90;;;;;;5070011;28;20602;-52
2023/06/14 06:41:39;;;;;;;13.80;6.18;;;15.50;99.70;;;;;;5070825;28;20104;-56
2023/06/14 06:44:06;;;;;;;9.82;5.55;;;15.50;1.00;;;;;;5071054;28;20482;-56
2023/06/14 06:46:33;;;;;;;10.68;5.60;;;15.50;1.00;;;;;;5070987;28;20115;-53
2023/06/14 06:48:58;;;;;;;17.38;5.57;;;15.60;59.70;;;;;;5069860;28;20032;-53
2023/06/14 06:51:27;;;;;;;7.68;5.18;;;15.70;1.00;;;;;;5070432;28;20490;-52
2023/06/14 06:53:56;;;;;;;14.32;6.05;;;16.00;1.00;;;;;;5074359;28;20060;-55
2023/06/14 06:56:23;;;;;;;8.07;5.47;;;16.10;99.90;;;;;;5073609;28;20119;-54
2023/06/14 06:58:51;;;;;;;12.60;4.90;;;16.10;99.90;;;;;;5074135;28;20395;-53
2023/06/14 07:01:19;;;;;;;6.75;5.47;;;16.20;1.00;;;;;;5074056;28;20052;-56
2023/06/14 07:03:45;;;;;;;9.07;5.18;;;16.20;46.80;;;;;;5074583;28;20055;-53
2023/06/14 07:06:11;;;;;;;15.73;5.18;;;16.30;1.00;;;;;;5073835;28;20020;-55
2023/06/14 07:08:38;;;;;;;10.55;5.85;;;16.30;1.00;;;;;;5073916;28;20017;-55
2023/06/14 07:11:05;;;;;;;12.18;5.43;;;16.50;1.00;;;;;;5074768;28;20036;-55
2023/06/14 07:13:31;;;;;;;11.65;5.57;;;16.60;99.90;;;;;;5074660;28;20021;-55
2023/06/14 07:16:00;;;;;;;11.63;5.95;;;16.70;1.00;;;;;;5073029;28;20081;-55
2023/06/14 07:18:26;;;;;;;7.70;5.25;;;16.70;1.00;;;;;;5073607;28;20035;-55
2023/06/14 07:20:53;;;;;;;11.10;5.88;;;16.70;1.00;;;;;;5073814;28;20028;-54
2023/06/14 07:23:20;;;;;;;9.75;5.32;;;16.80;1.00;;;;;;5073530;28;20105;-55
2023/06/14 07:25:46;;;;;;;8.68;5.60;;;17.00;21.70;;;;;;5073321;28;20032;-56
2023/06/14 07:28:12;;;;;;;8.55;5.00;;;17.10;1.00;;;;;;5073506;28;20021;-55
2023/06/14 07:30:38;;;;;;;6.68;5.47;;;17.30;1.00;;;;;;5073065;28;20051;-55
2023/06/14 07:33:03;;;;;;;6.15;5.55;;;17.30;99.90;;;;;;5073241;28;20032;-55
2023/06/14 07:35:29;;;;;;;13.18;5.85;;;17.30;99.90;;;;;;5073921;28;20035;-56
2023/06/14 07:37:55;;;;;;;10.27;6.22;;;17.40;99.90;;;;;;5074256;28;20636;-57
2023/06/14 07:40:21;;;;;;;10.25;5.55;;;17.50;99.90;;;;;;5073685;28;20034;-57
2023/06/14 07:42:46;;;;;;;15.00;5.78;;;17.40;99.90;;;;;;5074019;28;20370;-57
2023/06/14 07:45:14;;;;;;;9.65;5.75;;;17.60;99.90;;;;;;5073846;28;20066;-53
2023/06/14 07:47:39;;;;;;;10.82;6.40;;;17.70;99.90;;;;;;5072921;28;20024;-55
2023/06/14 07:50:05;;;;;;;16.00;5.93;;;17.90;99.90;;;;;;5073898;28;20487;-55
2023/06/14 07:52:31;;;;;;;10.65;5.80;;;17.90;99.90;;;;;;5074174;28;20054;-55
2023/06/14 07:54:57;;;;;;;11.38;6.10;;;18.00;99.90;;;;;;5074018;28;20032;-56
2023/06/14 07:57:23;;;;;;;8.73;5.72;;;18.20;99.90;;;;;;5073633;28;20040;-56
2023/06/14 08:06:33;;;;;;;14.63;6.15;;;18.10;1.00;;;;;;5073756;28;20050;-55
2023/06/14 08:08:59;;;;;;;9.88;6.22;;;18.30;1.00;;;;;;5073637;28;20119;-56
2023/06/14 08:11:24;;;;;;;11.00;5.72;;;18.30;1.00;;;;;;5073585;28;20027;-53
2023/06/14 08:13:50;;;;;;;10.30;5.72;;;18.50;1.00;;;;;;5073189;28;20063;-58
2023/06/14 08:16:16;;;;;;;20.35;7.20;;;18.50;1.00;;;;;;5072764;28;20024;-56
2023/06/14 08:18:41;;;;;;;10.20;6.40;;;18.40;1.00;;;;;;5073478;28;20856;-56
2023/06/14 08:21:07;;;;;;;13.60;5.60;;;18.60;1.00;;;;;;5073223;28;20103;-56
2023/06/14 08:23:33;;;;;;;11.82;6.20;;;18.80;1.00;;;;;;5073506;28;20120;-57
2023/06/14 08:26:01;;;;;;;7.47;5.53;;;18.90;99.90;;;;;;5073519;28;20036;-56
2023/06/14 08:28:26;;;;;;;11.55;6.95;;;18.90;99.90;;;;;;5073156;28;20367;-55
2023/06/14 08:30:52;;;;;;;15.05;7.47;;;19.00;99.90;;;;;;5073200;28;20016;-54
2023/06/14 08:33:18;;;;;;;11.48;5.63;;;19.30;99.90;;;;;;5071869;28;20032;-54
2023/06/14 08:35:44;;;;;;;11.15;6.30;;;19.30;99.90;;;;;;5073120;28;20019;-56
2023/06/14 08:38:11;;;;;;;24.17;11.18;;;19.30;99.90;;;;;;5072955;28;20021;-55
2023/06/14 08:40:38;;;;;;;18.10;7.97;;;19.30;99.90;;;;;;5072891;28;20025;-55
2023/06/14 08:43:03;;;;;;;12.52;5.65;;;19.40;99.90;;;;;;5072807;28;20032;-57
2023/06/14 08:45:29;;;;;;;10.02;5.72;;;19.40;99.90;;;;;;5071571;28;20028;-57
2023/06/14 08:47:59;;;;;;;9.50;6.32;;;19.20;99.90;;;;;;5072860;28;20024;-58
2023/06/14 08:50:32;;;;;;;18.88;6.38;;;19.30;99.90;;;;;;5072864;28;20036;-57
2023/06/14 08:53:02;;;;;;;9.17;5.90;;;19.40;99.90;;;;;;5071077;28;20024;-55
2023/06/14 08:55:30;;;;;;;14.57;5.53;;;19.60;99.90;;;;;;5071810;28;20263;-56
2023/06/14 08:57:57;;;;;;;15.50;6.28;;;19.90;99.90;;;;;;5072119;28;20090;-57
2023/06/14 09:00:24;;;;;;;10.02;5.90;;;20.00;99.90;;;;;;5072274;28;20028;-55
2023/06/14 09:02:55;;;;;;;13.63;5.22;;;20.00;99.90;;;;;;5072600;28;20059;-54
2023/06/14 09:05:25;;;;;;;16.13;6.15;;;20.30;99.90;;;;;;5072479;28;20055;-56
2023/06/14 09:07:51;;;;;;;10.68;5.18;;;20.40;99.90;;;;;;5072509;28;20363;-57
2023/06/14 09:10:17;;;;;;;6.95;5.68;;;20.40;99.90;;;;;;5071884;28;20031;-56
2023/06/14 09:12:43;;;;;;;8.65;5.55;;;20.40;67.40;;;;;;5071654;28;20553;-55
2023/06/14 09:15:10;;;;;;;13.38;5.35;;;20.60;79.70;;;;;;5070815;28;20478;-57
2023/06/14 09:17:36;;;;;;;7.97;4.70;;;20.70;95.20;;;;;;5072447;28;20024;-53
2023/06/14 09:20:10;;;;;;;9.05;5.10;;;20.80;44.30;;;;;;5072041;28;20112;-56
2023/06/14 09:22:38;;;;;;;11.45;5.65;;;21.00;27.30;;;;;;5072288;28;20502;-55
2023/06/14 09:25:04;;;;;;;7.00;5.97;;;21.00;11.20;;;;;;5072242;28;20059;-55
2023/06/14 09:27:30;;;;;;;17.15;5.97;;;21.10;29.50;;;;;;5072188;28;20027;-56
2023/06/14 09:29:56;;;;;;;12.30;5.18;;;21.30;3.30;;;;;;5072067;28;20426;-56
2023/06/14 09:32:22;;;;;;;6.68;4.65;;;21.50;10.30;;;;;;5072002;28;20028;-55
2023/06/14 09:34:48;;;;;;;12.15;5.47;;;21.40;1.00;;;;;;5072267;28;20035;-53
2023/06/14 09:37:30;;;;;;;7.90;5.57;;;21.30;1.00;;;;;;5071821;28;20493;-55
2023/06/14 09:39:56;;;;;;;7.50;4.22;;;21.20;1.00;;;;;;5071717;28;20017;-57
2023/06/14 09:42:23;;;;;;;7.60;4.32;;;21.50;1.00;;;;;;5071076;28;20429;-56
2023/06/14 09:44:49;;;;;;;7.75;5.20;;;21.80;1.00;;;;;;5071523;28;20017;-56
2023/06/14 09:47:15;;;;;;;7.00;5.25;;;21.90;1.00;;;;;;5071574;28;20021;-52
2023/06/14 09:49:42;;;;;;;6.78;4.75;;;22.00;1.00;;;;;;5071811;28;20013;-55
2023/06/14 09:52:13;;;;;;;8.07;5.40;;;22.20;1.00;;;;;;5049480;28;20690;-55
2023/06/14 09:54:43;;;;;;;10.05;5.00;;;22.40;1.00;;;;;;5040405;28;20032;-55
2023/06/14 09:57:11;;;;;;;10.10;5.32;;;22.30;1.00;;;;;;5040165;28;20091;-57
2023/06/14 09:59:41;;;;;;;11.15;4.43;;;22.60;1.00;;;;;;5040617;28;20037;-57
2023/06/14 10:02:12;;;;;;;8.15;5.50;;;22.80;1.00;;;;;;5040011;28;20032;-56
2023/06/14 10:04:46;;;;;;;14.18;5.55;;;22.90;1.00;;;;;;5041261;28;20116;-55
2023/06/14 10:07:18;;;;;;;5.57;4.68;;;22.70;1.00;;;;;;5040431;28;20086;-56
2023/06/14 10:09:49;;;;;;;8.57;4.50;;;22.60;1.00;;;;;;5040027;28;20037;-56
2023/06/14 10:12:20;;;;;;;8.02;4.63;;;22.30;1.00;;;;;;5040196;28;20296;-54
2023/06/14 10:14:50;;;;;;;8.10;4.57;;;22.60;1.00;;;;;;5039614;28;20021;-57
2023/06/14 10:17:46;;;;;;;6.85;4.20;;;22.50;1.00;;;;;;5040130;28;20053;-56
2023/06/14 10:20:15;;;;;;;6.57;4.32;;;23.00;1.00;;;;;;5046127;28;20048;-54
2023/06/14 10:22:49;;;;;;;9.98;3.80;;;23.10;1.00;;;;;;5040508;28;20040;-57
2023/06/14 10:25:31;;;;;;;7.00;4.53;;;23.30;1.00;;;;;;5040682;28;20056;-55
2023/06/14 10:28:12;;;;;;;9.27;4.63;;;23.50;1.00;;;;;;5043419;28;20400;-57
2023/06/14 10:30:37;;;;;;;13.38;4.53;;;23.70;1.00;;;;;;5044573;28;20036;-56
2023/06/14 10:33:07;;;;;;;4.30;3.90;;;23.90;1.00;;;;;;5043722;28;20024;-54
2023/06/14 10:35:34;;;;;;;6.75;4.60;;;23.80;1.00;;;;;;5044821;28;20033;-55
2023/06/14 10:38:11;;;;;;;8.07;4.90;;;23.80;1.00;;;;;;5045182;28;20518;-56
2023/06/14 10:40:39;;;;;;;10.63;4.35;;;23.40;1.00;;;;;;5043580;28;20064;-57
2023/06/14 10:43:23;;;;;;;8.15;3.55;;;23.70;1.00;;;;;;5044134;28;20056;-56
2023/06/14 10:46:18;;;;;;;6.13;3.83;;;24.00;1.00;;;;;;5044888;28;20116;-57
2023/06/14 10:48:44;;;;;;;5.53;4.00;;;24.00;99.90;;;;;;5044292;28;20075;-56
2023/06/14 10:51:20;;;;;;;3.80;3.38;;;24.10;99.90;;;;;;5043079;28;20029;-57
2023/06/14 10:53:49;;;;;;;5.35;4.45;;;24.30;99.90;;;;;;5044427;28;20024;-56
2023/06/14 10:56:28;;;;;;;11.10;4.30;;;24.50;99.90;;;;;;5043909;28;20029;-58
2023/06/14 10:58:56;;;;;;;8.38;4.32;;;24.70;99.90;;;;;;5043998;28;20041;-56
2023/06/14 11:01:35;;;;;;;8.70;3.63;;;24.90;99.90;;;;;;5043366;28;20036;-57
2023/06/14 11:04:09;;;;;;;4.10;3.15;;;25.30;99.90;;;;;;5043631;28;20017;-57
2023/06/14 11:07:05;;;;;;;6.47;4.03;;;25.30;99.90;;;;;;5043199;28;20037;-58
2023/06/14 11:09:51;;;;;;;10.02;2.90;;;25.10;99.90;;;;;;5044204;28;20055;-57
2023/06/14 11:12:18;;;;;;;7.20;3.47;;;25.30;99.90;;;;;;5042318;28;20040;-56
2023/06/14 11:14:46;;;;;;;6.63;3.47;;;25.10;99.90;;;;;;5041846;28;20025;-57
2023/06/14 11:17:12;;;;;;;10.43;3.88;;;25.30;99.90;;;;;;5043814;28;20559;-57
2023/06/14 11:19:38;;;;;;;8.00;3.22;;;25.30;99.90;;;;;;5042875;28;20036;-57
2023/06/14 11:22:04;;;;;;;4.95;3.17;;;25.10;99.90;;;;;;5044176;28;22321;-57
2023/06/14 11:24:32;;;;;;;4.82;3.05;;;25.20;99.90;;;;;;5044012;28;20438;-57
2023/06/14 11:26:57;;;;;;;6.65;3.80;;;25.10;99.90;;;;;;5047255;28;20048;-57
2023/06/14 11:29:23;;;;;;;6.07;3.45;;;25.10;99.90;;;;;;5053541;28;20061;-56
2023/06/14 11:31:49;;;;;;;5.72;3.65;;;25.40;99.90;;;;;;5053952;28;20057;-57
2023/06/14 11:34:15;;;;;;;6.68;4.35;;;25.60;99.90;;;;;;5053970;28;20057;-57
2023/06/14 11:36:41;;;;;;;8.38;3.80;;;25.80;99.90;;;;;;5053214;28;20124;-54
2023/06/14 11:39:08;;;;;;;4.93;3.78;;;25.90;99.90;;;;;;5052608;28;20037;-57
2023/06/14 11:41:38;;;;;;;8.20;3.47;;;25.70;99.90;;;;;;5054262;28;20059;-57
2023/06/14 11:44:05;;;;;;;6.93;3.55;;;25.50;99.90;;;;;;5053837;28;20020;-57
2023/06/14 11:46:31;;;;;;;8.23;3.42;;;25.70;99.90;;;;;;5054200;28;20025;-57
2023/06/14 11:48:57;;;;;;;9.43;3.55;;;26.10;99.90;;;;;;5053991;28;20067;-56
2023/06/14 11:51:23;;;;;;;10.18;3.42;;;26.10;99.90;;;;;;5054014;28;20033;-57
2023/06/14 11:53:49;;;;;;;17.08;3.20;;;26.40;99.90;;;;;;5053676;28;20465;-56
2023/06/14 11:56:15;;;;;;;3.83;3.08;;;26.70;99.90;;;;;;5053546;28;20523;-57
2023/06/14 11:58:43;;;;;;;9.20;3.53;;;26.90;99.90;;;;;;5052853;28;20045;-58
2023/06/14 12:01:09;;;;;;;6.35;2.90;;;26.90;99.90;;;;;;5052539;28;20025;-58
2023/06/14 12:03:35;;;;;;;6.38;3.55;;;26.80;99.90;;;;;;5052744;28;20384;-57
2023/06/14 12:06:08;;;;;;;4.30;2.78;;;26.70;99.90;;;;;;5052688;28;20100;-57
2023/06/14 12:08:41;;;;;;;4.97;3.20;;;26.90;99.90;;;;;;5052653;28;20029;-58
2023/06/14 12:11:10;;;;;;;5.20;2.75;;;27.10;99.90;;;;;;5052233;28;20029;-58
2023/06/14 12:13:40;;;;;;;3.42;2.90;;;27.30;99.90;;;;;;5052712;28;20021;-57
2023/06/14 12:16:10;;;;;;;5.47;2.80;;;27.20;99.90;;;;;;5053106;28;20510;-58
2023/06/14 12:18:39;;;;;;;8.52;3.22;;;28.00;99.90;;;;;;5053193;28;20040;-57
2023/06/14 12:21:06;;;;;;;3.72;3.30;;;28.90;99.90;;;;;;5053049;28;20021;-58
2023/06/14 12:23:49;;;;;;;3.72;2.47;;;28.90;99.90;;;;;;5053255;28;20107;-57
2023/06/14 12:26:19;;;;;;;7.75;3.97;;;29.40;99.90;;;;;;5051841;28;20025;-58
2023/06/14 12:28:46;;;;;;;5.32;2.72;;;30.00;99.90;;;;;;5053420;28;20033;-57
2023/06/14 12:31:13;;;;;;;7.38;3.92;;;29.70;99.90;;;;;;5053217;28;20055;-58
2023/06/14 12:33:40;;;;;;;10.10;3.03;;;29.90;99.90;;;;;;5053036;28;20036;-58
2023/06/14 12:36:10;;;;;;;15.13;2.78;;;30.40;99.90;;;;;;5053032;28;20016;-58
2023/06/14 12:38:37;;;;;;;5.38;2.70;;;30.80;99.90;;;;;;5051625;28;20039;-58
2023/06/14 12:41:03;;;;;;;3.78;2.78;;;31.10;99.90;;;;;;5053030;28;20043;-58
2023/06/14 12:43:28;;;;;;;13.65;3.08;;;30.90;99.90;;;;;;5051438;28;20055;-58
2023/06/14 12:45:54;;;;;;;6.72;2.40;;;31.70;99.90;;;;;;5052686;28;20025;-58
2023/06/14 12:48:20;;;;;;;10.18;2.92;;;32.10;99.90;;;;;;5052539;28;20021;-58
2023/06/14 12:50:47;;;;;;;6.28;2.38;;;31.60;99.90;;;;;;5052440;28;20025;-58
2023/06/14 12:53:13;;;;;;;8.50;2.72;;;32.80;1.00;;;;;;5052445;28;20056;-59
2023/06/14 12:55:39;;;;;;;9.68;2.88;;;32.60;1.00;;;;;;5052612;28;20522;-58
2023/06/14 12:58:04;;;;;;;7.10;2.65;;;32.80;1.00;;;;;;5052004;28;20128;-58
2023/06/14 13:00:30;;;;;;;5.47;2.28;;;32.70;1.00;;;;;;5052452;28;20388;-59
2023/06/14 13:02:59;;;;;;;4.57;2.72;;;32.40;1.00;;;;;;5051954;28;20461;-59